Terminal Aerodrome Forecast
Issued by NWS

Home | Current Version | Previous Version | Text Only | Print | Product List | Glossary On
Versions: 1 2 3 4 5 6 7 8 9 10 11 12 13 14 15 16 17 18 19 20
000
FTUS45 KGJT 231131
TAFRIL
TAF
KRIL 231131Z 2312/2412 31018G26KT P6SM VCSH BKN080 OVC120
      TEMPO 2312/2314 VRB25G35KT -SHRA BKN060
     FM231400 27017G27KT P6SM SCT070 BKN110
     FM232300 30015G25KT P6SM SCT110
     FM240500 25006KT P6SM FEW110=

USA.gov is the U.S. government's official web portal to all federal, state and local government web resources and services.